Time;durP1;ratioP1;P1;durP2;ratioP2;P2;SDS_P1;SDS_P2;PMS_P1;PMS_P2;Temp;Humidity;BMP_temperature;BMP_pressure;BME280_temperature;BME280_humidity;BME280_pressure;Samples;Min_cycle;Max_cycle;Signal;HPM_P1;HPM_P2
2022/06/05 00:02:16;;;;;;;19.30;17.50;;;-31.70;99.90;;;;;;5136237;27;20166;-67
2022/06/05 00:04:57;;;;;;;19.67;17.77;;;-33.50;99.90;;;;;;5136372;27;20169;-65
2022/06/05 00:07:38;;;;;;;18.50;16.90;;;-31.30;99.90;;;;;;5136144;27;20250;-70
2022/06/05 00:10:19;;;;;;;20.20;18.53;;;-40.00;99.90;;;;;;5136560;27;20157;-71
2022/06/05 00:13:04;;;;;;;18.00;16.53;;;-36.70;99.90;;;;;;5136365;27;20196;-69
2022/06/05 00:15:32;;;;;;;18.63;16.93;;;-32.90;99.90;;;;;;5136208;27;20162;-73
2022/06/05 00:17:59;;;;;;;19.17;17.67;;;-40.00;99.90;;;;;;5135128;27;20169;-71
2022/06/05 00:20:25;;;;;;;21.07;19.23;;;-30.80;99.90;;;;;;5136492;27;20252;-72
2022/06/05 00:22:50;;;;;;;19.60;18.17;;;-35.60;99.90;;;;;;5136211;28;20261;-69
2022/06/05 00:25:16;;;;;;;17.47;16.07;;;-27.20;99.90;;;;;;5137830;27;20162;-64
2022/06/05 00:27:48;;;;;;;18.23;16.73;;;-37.10;99.90;;;;;;5139914;27;20494;-69
2022/06/05 00:30:26;;;;;;;19.97;18.07;;;-35.00;99.90;;;;;;5140170;27;20169;-65
2022/06/05 00:33:02;;;;;;;17.80;16.20;;;-34.20;99.90;;;;;;5140015;27;20153;-67
2022/06/05 00:35:32;;;;;;;18.57;17.07;;;-27.90;99.90;;;;;;5139788;27;20184;-69
2022/06/05 00:38:16;;;;;;;16.83;15.63;;;-28.70;99.90;;;;;;5139982;27;20175;-73
2022/06/05 00:40:48;;;;;;;18.40;16.97;;;-27.50;99.90;;;;;;5139058;27;20165;-71
2022/06/05 00:43:16;;;;;;;17.53;16.27;;;-29.20;99.90;;;;;;5139510;27;20169;-76
2022/06/05 00:45:43;;;;;;;17.83;16.00;;;-40.00;99.90;;;;;;5139866;27;20236;-74
2022/06/05 00:48:11;;;;;;;18.30;16.97;;;-40.00;99.90;;;;;;5139747;27;20193;-72
2022/06/05 00:50:39;;;;;;;25.07;18.77;;;-40.00;99.90;;;;;;5139828;27;20162;-71
2022/06/05 00:53:07;;;;;;;17.90;16.33;;;-31.10;99.90;;;;;;5138535;27;20161;-72
2022/06/05 00:55:58;;;;;;;18.30;17.00;;;-40.00;99.90;;;;;;5139597;27;20191;-73
2022/06/05 00:58:23;;;;;;;19.10;17.50;;;-32.10;99.90;;;;;;5139263;27;20489;-69
2022/06/05 01:00:52;;;;;;;18.60;17.03;;;-40.00;99.90;;;;;;5138462;27;20203;-66
2022/06/05 01:03:21;;;;;;;19.33;17.67;;;-40.00;99.90;;;;;;5139500;27;20558;-70
2022/06/05 01:05:47;;;;;;;17.97;16.47;;;-40.00;99.90;;;;;;5139305;27;20184;-68
2022/06/05 01:08:14;;;;;;;18.67;17.27;;;-40.00;99.90;;;;;;5139241;27;20537;-64
2022/06/05 01:11:01;;;;;;;17.97;16.57;;;-40.00;99.90;;;;;;5139262;27;20173;-64
2022/06/05 01:13:44;;;;;;;16.90;15.80;;;-40.00;99.90;;;;;;5138967;27;20525;-64
2022/06/05 01:16:42;;;;;;;16.87;15.47;;;-40.00;99.90;;;;;;5139148;27;20165;-68
2022/06/05 01:19:37;;;;;;;18.47;16.93;;;-40.00;99.90;;;;;;5126547;27;20454;-65
2022/06/05 01:22:06;;;;;;;18.00;16.60;;;-35.80;99.90;;;;;;5139073;27;20467;-65
2022/06/05 01:24:50;;;;;;;18.70;17.03;;;-40.00;99.90;;;;;;5138874;27;20257;-65
2022/06/05 01:27:22;;;;;;;20.67;18.97;;;-40.00;99.90;;;;;;5138599;27;20219;-65
2022/06/05 01:29:59;;;;;;;20.07;18.53;;;-40.00;99.90;;;;;;5138852;27;20211;-67
2022/06/05 01:32:29;;;;;;;23.07;19.10;;;-36.60;99.90;;;;;;5138764;27;20161;-67
2022/06/05 01:34:59;;;;;;;19.93;18.30;;;-40.00;99.90;;;;;;5138684;27;20203;-73
2022/06/05 01:37:41;;;;;;;18.63;16.87;;;-40.00;99.90;;;;;;5138415;27;20208;-71
2022/06/05 01:40:25;;;;;;;19.90;18.33;;;-40.00;99.90;;;;;;5138587;27;20594;-66
2022/06/05 01:43:09;;;;;;;18.77;17.33;;;-35.40;99.90;;;;;;5138904;27;20173;-67
2022/06/05 01:45:44;;;;;;;19.10;17.37;;;-40.00;99.90;;;;;;5138535;27;20161;-70
2022/06/05 01:48:41;;;;;;;19.53;17.90;;;-40.00;99.90;;;;;;5138354;27;20197;-65
2022/06/05 01:51:19;;;;;;;19.03;17.63;;;-40.00;99.90;;;;;;5133610;27;20173;-71
2022/06/05 01:53:49;;;;;;;21.50;19.43;;;-40.00;99.90;;;;;;5138390;27;20462;-68
2022/06/05 01:56:39;;;;;;;20.17;18.67;;;-40.00;99.90;;;;;;5138161;27;20164;-73
2022/06/05 01:59:17;;;;;;;22.20;20.20;;;-40.00;99.90;;;;;;5138135;27;20169;-72
2022/06/05 02:01:47;;;;;;;21.30;19.40;;;-40.00;99.90;;;;;;5138177;27;20218;-72
2022/06/05 02:04:17;;;;;;;22.00;19.80;;;-40.00;99.90;;;;;;5138135;27;20172;-68
2022/06/05 02:07:03;;;;;;;21.23;19.33;;;-40.00;99.90;;;;;;5138032;27;20304;-66
2022/06/05 02:09:33;;;;;;;19.60;18.20;;;-40.00;99.90;;;;;;5137503;27;20513;-64
2022/06/05 02:12:01;;;;;;;18.93;17.40;;;-37.20;99.90;;;;;;5138068;27;20161;-65
2022/06/05 02:14:26;;;;;;;22.50;20.13;;;-40.00;99.90;;;;;;5119644;27;20476;-67
2022/06/05 02:16:52;;;;;;;21.90;19.80;;;-40.00;99.90;;;;;;5138011;27;20174;-69
2022/06/05 02:19:21;;;;;;;21.97;20.33;;;-40.00;99.90;;;;;;5137745;27;20230;-65
2022/06/05 02:21:48;;;;;;;21.80;19.90;;;-40.00;99.90;;;;;;5137818;27;20170;-65
2022/06/05 02:24:15;;;;;;;21.17;19.50;;;-40.00;99.90;;;;;;5137792;27;20462;-70
2022/06/05 02:26:41;;;;;;;22.43;20.07;;;-38.30;99.90;;;;;;5137511;27;20272;-70
2022/06/05 02:29:19;;;;;;;21.60;19.80;;;-39.40;99.90;;;;;;5136532;27;20169;-72
2022/06/05 02:31:50;;;;;;;19.10;17.47;;;-40.00;99.90;;;;;;5137586;27;20262;-70
2022/06/05 02:34:53;;;;;;;21.87;19.77;;;-40.00;99.90;;;;;;5137334;27;20162;-65
2022/06/05 02:37:54;;;;;;;20.23;18.63;;;-40.00;99.90;;;;;;5137433;27;20576;-68
2022/06/05 02:40:39;;;;;;;27.87;20.97;;;-40.00;99.90;;;;;;5114429;28;20579;-72
2022/06/05 02:43:14;;;;;;;20.00;18.40;;;-40.00;99.90;;;;;;5135713;27;20184;-67
2022/06/05 02:46:01;;;;;;;20.67;18.97;;;-40.00;99.90;;;;;;5137245;27;20497;-69
2022/06/05 02:48:47;;;;;;;20.13;18.67;;;-40.00;99.90;;;;;;5136590;27;20197;-66
2022/06/05 02:51:21;;;;;;;21.67;19.77;;;-40.00;99.90;;;;;;5137230;27;20457;-65
2022/06/05 02:53:50;;;;;;;21.17;19.23;;;-40.00;99.90;;;;;;5137100;27;20160;-64
2022/06/05 02:56:17;;;;;;;21.13;19.43;;;-40.00;99.90;;;;;;5137078;27;20201;-65
2022/06/05 02:58:44;;;;;;;19.17;17.63;;;-40.00;99.90;;;;;;5137121;27;20165;-65
2022/06/05 03:03:54;;;;;;;21.67;19.63;;;-40.00;99.90;;;;;;5137393;27;20299;-70
2022/06/05 03:06:20;;;;;;;20.73;19.00;;;-40.00;99.90;;;;;;5137079;27;20647;-70
2022/06/05 03:08:46;;;;;;;20.40;18.77;;;-40.00;99.90;;;;;;5136669;27;20240;-69
2022/06/05 03:11:12;;;;;;;20.53;19.03;;;-40.00;99.90;;;;;;5137088;27;20185;-71
2022/06/05 03:13:38;;;;;;;20.93;19.07;;;-40.00;99.90;;;;;;5136030;27;20173;-68
2022/06/05 03:16:04;;;;;;;19.00;17.33;;;-40.00;99.90;;;;;;5136857;27;20153;-64
2022/06/05 03:18:30;;;;;;;21.37;19.43;;;-40.00;99.90;;;;;;5135690;27;20172;-64
2022/06/05 03:20:57;;;;;;;20.10;18.50;;;-40.00;99.90;;;;;;5136622;27;20381;-64
2022/06/05 03:23:25;;;;;;;20.00;18.30;;;-40.00;99.90;;;;;;5136621;27;20158;-67
2022/06/05 03:25:51;;;;;;;22.27;20.13;;;-40.00;99.90;;;;;;5135550;27;20173;-65
2022/06/05 03:28:17;;;;;;;21.30;19.10;;;-40.00;99.90;;;;;;5136618;27;20197;-65
2022/06/05 03:30:43;;;;;;;20.57;19.07;;;-40.00;99.90;;;;;;5136476;27;20197;-64
2022/06/05 03:33:10;;;;;;;20.00;18.47;;;-40.00;99.90;;;;;;5136556;27;20587;-64
2022/06/05 03:35:38;;;;;;;21.33;19.80;;;-40.00;99.90;;;;;;5136237;27;20181;-65
2022/06/05 03:38:04;;;;;;;21.17;19.53;;;-40.00;99.90;;;;;;5135230;27;20169;-64
2022/06/05 03:40:31;;;;;;;22.60;20.73;;;-40.00;99.90;;;;;;5136469;27;20177;-65
2022/06/05 03:42:57;;;;;;;22.10;19.90;;;-40.00;99.90;;;;;;5135309;27;20173;-65
2022/06/05 03:45:23;;;;;;;23.50;21.33;;;-40.00;99.90;;;;;;5136477;27;20500;-63
2022/06/05 03:47:49;;;;;;;22.83;20.90;;;-40.00;99.90;;;;;;5136210;27;20280;-65
2022/06/05 03:50:16;;;;;;;23.67;21.50;;;-40.00;99.90;;;;;;5136500;27;20157;-67
2022/06/05 03:52:42;;;;;;;24.73;22.83;;;-40.00;99.90;;;;;;5136027;27;20158;-64
2022/06/05 03:55:12;;;;;;;24.23;22.13;;;-40.00;99.90;;;;;;5136317;27;20165;-63
2022/06/05 03:57:38;;;;;;;23.83;21.90;;;-40.00;99.90;;;;;;5136192;27;20197;-64
2022/06/05 04:00:05;;;;;;;23.57;21.80;;;-40.00;99.90;;;;;;5139338;27;20211;-64
2022/06/05 04:02:31;;;;;;;26.23;24.03;;;-40.00;99.90;;;;;;5140265;27;20196;-64
2022/06/05 04:05:00;;;;;;;24.10;22.20;;;-40.00;99.90;;;;;;5140307;27;20197;-63
2022/06/05 04:07:26;;;;;;;25.23;22.83;;;-40.00;99.90;;;;;;5139938;27;20211;-65
2022/06/05 04:09:51;;;;;;;24.53;22.20;;;-40.00;99.90;;;;;;5140358;27;20193;-64
2022/06/05 04:12:17;;;;;;;25.53;23.53;;;-40.00;99.90;;;;;;5140276;27;20510;-69
2022/06/05 04:14:43;;;;;;;23.70;21.67;;;-40.00;99.90;;;;;;5140329;27;20166;-69
2022/06/05 04:17:10;;;;;;;22.40;20.60;;;-40.00;99.90;;;;;;5140366;27;20252;-68
2022/06/05 04:19:36;;;;;;;38.10;23.10;;;-40.00;99.90;;;;;;5139186;27;20165;-65
2022/06/05 04:22:02;;;;;;;22.57;20.77;;;-40.00;99.90;;;;;;5139954;27;20169;-66
2022/06/05 04:24:28;;;;;;;25.90;23.37;;;-40.00;99.90;;;;;;5140209;27;20210;-68
2022/06/05 04:26:54;;;;;;;25.87;23.77;;;-40.00;99.90;;;;;;5139875;27;20193;-63
2022/06/05 04:29:20;;;;;;;24.23;22.27;;;-40.00;99.90;;;;;;5140054;27;20170;-72
2022/06/05 04:31:47;;;;;;;23.50;21.37;;;-40.00;99.90;;;;;;5139966;27;20169;-74
2022/06/05 04:34:19;;;;;;;23.53;21.60;;;-40.00;99.90;;;;;;5139839;27;20222;-69
2022/06/05 04:36:45;;;;;;;20.83;19.33;;;-40.00;99.90;;;;;;5139819;27;20205;-66
2022/06/05 04:39:12;;;;;;;21.93;20.23;;;-40.00;99.90;;;;;;5138641;27;20166;-63
2022/06/05 04:41:39;;;;;;;24.10;22.10;;;-40.00;99.90;;;;;;5139748;27;20176;-66
2022/06/05 04:44:06;;;;;;;21.43;19.60;;;-40.00;99.90;;;;;;5139728;27;20236;-68
2022/06/05 04:46:33;;;;;;;21.87;20.07;;;-40.00;99.90;;;;;;5139366;27;20197;-69
2022/06/05 04:48:59;;;;;;;22.27;20.47;;;-40.00;99.90;;;;;;5139299;27;20208;-70
2022/06/05 04:51:26;;;;;;;22.13;20.17;;;-40.00;99.90;;;;;;5139658;27;20189;-63
2022/06/05 04:53:56;;;;;;;22.83;20.93;;;-40.00;99.90;;;;;;5139435;27;20172;-64
2022/06/05 04:56:25;;;;;;;23.63;21.37;;;-40.00;99.90;;;;;;5139778;27;20180;-63
2022/06/05 04:58:53;;;;;;;22.93;20.50;;;-40.00;99.90;;;;;;5139343;27;20170;-63
2022/06/05 05:01:24;;;;;;;21.43;19.73;;;-40.00;99.90;;;;;;5139620;27;20191;-63
2022/06/05 05:03:55;;;;;;;21.53;19.70;;;-40.00;99.90;;;;;;5139123;27;20170;-63
2022/06/05 05:06:22;;;;;;;21.93;20.03;;;-40.00;99.90;;;;;;5139280;27;20197;-63
2022/06/05 05:08:48;;;;;;;21.60;19.70;;;-40.00;99.90;;;;;;5139186;27;20238;-63
2022/06/05 05:11:15;;;;;;;20.57;18.97;;;-40.00;99.90;;;;;;5137498;27;20556;-63
2022/06/05 05:13:41;;;;;;;22.50;19.93;;;-40.00;99.90;;;;;;5139271;27;20166;-64
2022/06/05 05:16:07;;;;;;;21.63;19.73;;;-40.00;99.90;;;;;;5139365;27;20209;-63
2022/06/05 05:18:33;;;;;;;20.47;18.67;;;-40.00;99.90;;;;;;5138851;27;20162;-63
2022/06/05 05:21:08;;;;;;;23.17;21.07;;;-40.00;99.90;;;;;;5139256;27;20174;-64
2022/06/05 05:23:34;;;;;;;23.43;21.43;;;-40.00;99.90;;;;;;5139084;27;20222;-63
2022/06/05 05:26:30;;;;;;;22.33;20.47;;;-40.00;99.90;;;;;;5139167;27;20208;-64
2022/06/05 05:28:58;;;;;;;26.00;21.87;;;-40.00;99.90;;;;;;5138257;27;20181;-66
2022/06/05 05:31:28;;;;;;;22.57;20.67;;;-40.00;99.90;;;;;;5138922;27;20218;-69
2022/06/05 05:33:54;;;;;;;22.13;20.10;;;-40.00;99.90;;;;;;5138511;27;20161;-68
2022/06/05 05:36:21;;;;;;;22.73;20.77;;;-40.00;99.90;;;;;;5137551;27;20221;-65
2022/06/05 05:44:19;;;;;;;24.20;21.70;;;-40.00;99.90;;;;;;5138914;27;20475;-64
2022/06/05 05:46:46;;;;;;;21.60;19.63;;;-40.00;99.90;;;;;;5138292;27;20189;-67
2022/06/05 05:49:13;;;;;;;21.50;19.80;;;-40.00;99.90;;;;;;5138443;27;20157;-67
2022/06/05 05:51:39;;;;;;;22.47;20.67;;;-40.00;99.90;;;;;;5138511;27;20261;-69
2022/06/05 05:54:06;;;;;;;22.40;20.57;;;-40.00;99.90;;;;;;5138421;27;20219;-66
2022/06/05 05:56:32;;;;;;;21.33;19.70;;;-40.00;99.90;;;;;;5138405;27;20165;-65
2022/06/05 05:58:58;;;;;;;22.80;19.77;;;-40.00;99.90;;;;;;5138326;27;20173;-72
2022/06/05 06:01:24;;;;;;;20.47;18.77;;;-40.00;99.90;;;;;;5138356;27;20214;-66
2022/06/05 06:03:50;;;;;;;20.50;18.90;;;-40.00;99.90;;;;;;5138397;27;20476;-69
2022/06/05 06:06:31;;;;;;;21.23;19.53;;;-40.00;99.90;;;;;;5138281;27;20173;-64
2022/06/05 06:08:58;;;;;;;21.53;19.63;;;-40.00;99.90;;;;;;5138093;27;20173;-72
2022/06/05 06:11:24;;;;;;;19.43;17.83;;;-40.00;99.90;;;;;;5138333;27;20173;-67
2022/06/05 06:13:50;;;;;;;19.10;17.47;;;-40.00;99.90;;;;;;5138222;27;20157;-66
2022/06/05 06:16:16;;;;;;;20.00;17.93;;;-40.00;99.90;;;;;;5137784;27;20591;-65
2022/06/05 06:18:41;;;;;;;20.23;18.73;;;-40.00;99.90;;;;;;5137884;27;20169;-66
2022/06/05 06:21:07;;;;;;;18.83;17.30;;;-40.00;99.90;;;;;;5137891;27;20158;-73
2022/06/05 06:23:33;;;;;;;19.40;17.73;;;-40.00;99.90;;;;;;5138076;27;20165;-75
2022/06/05 06:25:59;;;;;;;18.63;17.10;;;-40.00;99.90;;;;;;5137713;27;20158;-68
2022/06/05 06:28:25;;;;;;;19.97;18.43;;;-40.00;99.90;;;;;;5138044;27;20276;-68
2022/06/05 06:30:51;;;;;;;17.83;16.53;;;-40.00;99.90;;;;;;5137584;27;20158;-67
2022/06/05 06:33:16;;;;;;;19.60;17.90;;;-40.00;99.90;;;;;;5136896;27;20187;-74
2022/06/05 06:35:42;;;;;;;19.57;18.00;;;-40.00;99.90;;;;;;5137628;27;20534;-69
2022/06/05 06:38:08;;;;;;;20.30;18.40;;;-40.00;99.90;;;;;;5137905;27;20169;-71
2022/06/05 06:40:36;;;;;;;18.57;17.07;;;-40.00;99.90;;;;;;5136567;27;20195;-67
2022/06/05 06:43:03;;;;;;;18.60;17.10;;;-40.00;99.90;;;;;;5136868;27;20169;-67
2022/06/05 06:45:29;;;;;;;17.63;16.13;;;-40.00;99.90;;;;;;5137386;27;20183;-71
2022/06/05 06:47:55;;;;;;;17.73;16.07;;;-40.00;99.90;;;;;;5136615;27;20285;-67
2022/06/05 06:50:21;;;;;;;18.70;17.17;;;-40.00;99.90;;;;;;5137369;27;20512;-67
2022/06/05 06:52:47;;;;;;;16.73;15.50;;;-40.00;99.90;;;;;;5136407;27;20165;-74
2022/06/05 06:55:16;;;;;;;17.17;15.83;;;-40.00;99.90;;;;;;5137411;27;20164;-67
2022/06/05 06:57:42;;;;;;;15.93;14.43;;;-40.00;99.90;;;;;;5137329;27;20198;-67
2022/06/05 07:00:12;;;;;;;20.70;15.67;;;-40.00;99.90;;;;;;5137272;27;20252;-75
2022/06/05 07:02:38;;;;;;;15.07;13.97;;;-40.00;99.90;;;;;;5137339;27;20162;-75
2022/06/05 07:05:04;;;;;;;16.27;14.87;;;-40.00;99.90;;;;;;5137242;27;20177;-77
2022/06/05 07:07:30;;;;;;;14.60;13.47;;;-40.00;99.90;;;;;;5136440;27;20209;-71
2022/06/05 07:09:57;;;;;;;15.53;14.17;;;-40.00;99.90;;;;;;5137362;27;20463;-67
2022/06/05 07:12:22;;;;;;;18.53;13.27;;;-40.00;99.90;;;;;;5137214;27;20168;-75
2022/06/05 07:14:48;;;;;;;14.97;13.77;;;-40.00;99.90;;;;;;5136657;27;20244;-80
2022/06/05 07:17:14;;;;;;;14.90;13.70;;;-40.00;99.90;;;;;;5135893;27;20208;-72
2022/06/05 07:19:39;;;;;;;14.63;13.53;;;-40.00;99.90;;;;;;5137076;27;20165;-70
2022/06/05 07:22:05;;;;;;;15.83;14.63;;;-40.00;99.90;;;;;;5136465;27;20173;-76
2022/06/05 07:24:34;;;;;;;14.00;13.00;;;-40.00;99.90;;;;;;5136992;27;20177;-73
2022/06/05 07:27:00;;;;;;;15.57;14.07;;;-40.00;99.90;;;;;;5136723;27;20189;-68
2022/06/05 07:29:29;;;;;;;16.50;15.17;;;-40.00;99.90;;;;;;5136841;27;20479;-67
2022/06/05 07:31:57;;;;;;;14.87;13.67;;;-40.00;99.90;;;;;;5136926;27;20210;-77
2022/06/05 07:34:23;;;;;;;13.60;12.67;;;-40.00;99.90;;;;;;5136435;27;20181;-67
2022/06/05 07:36:50;;;;;;;14.20;13.10;;;-40.00;99.90;;;;;;5135785;27;20189;-73
2022/06/05 07:39:16;;;;;;;17.30;13.50;;;-40.00;99.90;;;;;;5136777;27;20526;-73
2022/06/05 07:41:42;;;;;;;13.50;12.40;;;-40.00;99.90;;;;;;5118688;28;20170;-67
2022/06/05 07:44:08;;;;;;;14.27;13.07;;;-40.00;99.90;;;;;;5135446;27;20307;-73
2022/06/05 07:46:35;;;;;;;14.47;13.47;;;-40.00;99.90;;;;;;5135399;27;20189;-68
2022/06/05 07:49:01;;;;;;;13.93;12.83;;;-40.00;99.90;;;;;;5136814;27;20244;-78
2022/06/05 07:54:37;;;;;;;14.03;12.93;;;-40.00;99.90;;;;;;5137071;28;20167;-67
2022/06/05 07:57:08;;;;;;;14.03;13.03;;;-40.00;99.90;;;;;;5136428;27;20673;-68
2022/06/05 07:59:46;;;;;;;14.27;13.27;;;-40.00;99.90;;;;;;5136708;27;20165;-67
2022/06/05 08:02:19;;;;;;;14.77;13.70;;;-40.00;99.90;;;;;;5136802;27;20244;-68
2022/06/05 08:04:55;;;;;;;14.70;13.50;;;-40.00;99.90;;;;;;5136916;27;20305;-69
2022/06/05 08:07:26;;;;;;;14.17;13.07;;;-40.00;99.90;;;;;;5136975;27;20276;-71
2022/06/05 08:09:52;;;;;;;16.00;14.93;;;-40.00;99.90;;;;;;5136246;27;20188;-81
2022/06/05 08:12:20;;;;;;;15.00;13.80;;;-40.00;99.90;;;;;;5136386;27;20220;-81
2022/06/05 08:14:49;;;;;;;13.83;12.73;;;-40.00;99.90;;;;;;5136603;27;20564;-82
2022/06/05 08:17:17;;;;;;;14.00;13.00;;;-40.00;99.90;;;;;;5136425;27;20187;-79
2022/06/05 08:19:44;;;;;;;15.97;14.17;;;-40.00;99.90;;;;;;5136526;27;20165;-77
2022/06/05 08:22:12;;;;;;;15.20;13.97;;;-40.00;99.90;;;;;;5136363;27;20199;-80
2022/06/05 08:24:39;;;;;;;14.93;13.73;;;-40.00;99.90;;;;;;5135351;27;20180;-68
2022/06/05 08:27:07;;;;;;;15.27;14.07;;;-40.00;99.90;;;;;;5135852;27;20197;-70
2022/06/05 08:29:33;;;;;;;15.50;14.40;;;-40.00;99.90;;;;;;5136437;27;20211;-67
2022/06/05 08:31:59;;;;;;;15.60;14.40;;;-40.00;99.90;;;;;;5136126;27;20166;-68
2022/06/05 08:34:24;;;;;;;15.57;14.40;;;-40.00;99.90;;;;;;5136206;27;20158;-72
2022/06/05 08:41:26;;;;;;;16.17;15.03;;;-40.00;99.90;;;;;;5136021;27;20619;-69
2022/06/05 08:42:32;;;;;;;17.40;15.90;;;-40.00;99.90;;;;;;5135978;28;20181;-68
2022/06/05 08:45:15;;;;;;;16.87;15.57;;;-40.00;99.90;;;;;;5136124;27;20189;-71
2022/06/05 08:47:49;;;;;;;16.13;15.03;;;-40.00;99.90;;;;;;5139787;27;20185;-75
2022/06/05 08:50:35;;;;;;;16.17;14.97;;;-40.00;99.90;;;;;;5139978;27;20192;-77
2022/06/05 08:53:34;;;;;;;16.93;15.63;;;-40.00;99.90;;;;;;5139736;27;20197;-70
2022/06/05 08:56:00;;;;;;;19.17;17.77;;;-40.00;99.90;;;;;;5139422;27;20161;-73
2022/06/05 08:58:43;;;;;;;19.20;17.60;;;-40.00;99.90;;;;;;5139682;27;20188;-70
2022/06/05 09:01:13;;;;;;;19.77;18.13;;;-40.00;99.90;;;;;;5139639;27;20173;-80
2022/06/05 09:04:01;;;;;;;20.20;18.40;;;-40.00;99.90;;;;;;5139495;27;20162;-72
2022/06/05 09:06:38;;;;;;;20.70;19.20;;;-40.00;99.90;;;;;;5139789;27;20177;-70
2022/06/05 09:09:11;;;;;;;22.50;20.67;;;-40.00;99.90;;;;;;5138350;27;20191;-80
2022/06/05 09:11:47;;;;;;;23.43;21.33;;;-40.00;99.90;;;;;;5138232;27;20173;-68
2022/06/05 09:14:59;;;;;;;21.90;20.20;;;-40.00;99.90;;;;;;5139284;27;20172;-76
2022/06/05 09:17:26;;;;;;;21.43;19.50;;;-40.00;99.90;;;;;;5135721;27;20311;-74
2022/06/05 09:19:53;;;;;;;26.97;20.80;;;-40.00;99.90;;;;;;5139098;27;20170;-71
2022/06/05 09:22:28;;;;;;;22.13;20.33;;;-40.00;99.90;;;;;;5138265;27;20177;-68
2022/06/05 09:25:05;;;;;;;24.27;22.20;;;-40.00;99.90;;;;;;5137695;27;20276;-72
2022/06/05 09:27:55;;;;;;;25.83;23.67;;;-40.00;99.90;;;;;;5139171;27;20206;-68
2022/06/05 09:30:29;;;;;;;25.23;22.90;;;-40.00;99.90;;;;;;5137861;27;20173;-71
2022/06/05 09:33:34;;;;;;;24.53;22.10;;;-40.00;99.90;;;;;;5139034;27;20275;-71
2022/06/05 09:36:10;;;;;;;25.10;22.93;;;-40.00;99.90;;;;;;5138906;27;20188;-68
2022/06/05 09:38:51;;;;;;;25.60;23.40;;;-40.00;99.90;;;;;;5138895;27;20173;-70
2022/06/05 09:41:28;;;;;;;25.93;23.73;;;-40.00;99.90;;;;;;5138881;27;20173;-70
2022/06/05 09:44:31;;;;;;;27.80;25.20;;;-40.00;99.90;;;;;;5138615;27;20189;-68
2022/06/05 09:47:03;;;;;;;27.77;25.47;;;-40.00;99.90;;;;;;5137581;27;20207;-70
2022/06/05 09:49:40;;;;;;;28.23;25.87;;;-40.00;99.90;;;;;;5138638;27;20169;-72
2022/06/05 09:52:21;;;;;;;31.13;28.47;;;-40.00;99.90;;;;;;5137497;27;20202;-72
2022/06/05 09:54:57;;;;;;;30.27;27.63;;;-40.00;99.90;;;;;;5138106;27;20169;-73
2022/06/05 10:00:31;;;;;;;32.87;29.80;;;-40.00;99.90;;;;;;5138460;27;20245;-78
2022/06/05 10:03:09;;;;;;;31.33;28.63;;;-40.00;99.90;;;;;;5137354;27;20185;-75
2022/06/05 10:05:40;;;;;;;33.13;30.17;;;-40.00;99.90;;;;;;5138203;27;20173;-77
2022/06/05 10:08:22;;;;;;;32.67;29.93;;;-40.00;99.90;;;;;;5138153;27;20193;-74
2022/06/05 10:10:50;;;;;;;34.40;31.23;;;-40.00;99.90;;;;;;5138207;27;20169;-75
2022/06/05 10:13:43;;;;;;;34.10;30.87;;;-40.00;99.90;;;;;;5138261;27;20581;-77
2022/06/05 10:16:15;;;;;;;33.47;30.57;;;-40.00;99.90;;;;;;5137026;27;20218;-76
2022/06/05 10:18:50;;;;;;;37.80;34.50;;;-40.00;99.90;;;;;;5138081;27;20257;-75
2022/06/05 10:21:20;;;;;;;38.03;34.17;;;-40.00;99.90;;;;;;5137749;27;20225;-69
2022/06/05 10:24:07;;;;;;;35.47;32.23;;;-40.00;99.90;;;;;;5137793;27;20204;-69
2022/06/05 10:26:37;;;;;;;34.67;31.53;;;-40.00;99.90;;;;;;5137702;27;20197;-74
2022/06/05 10:29:14;;;;;;;37.37;33.60;;;-40.00;99.90;;;;;;5137729;27;20169;-72
2022/06/05 10:31:47;;;;;;;39.37;34.73;;;-40.00;99.90;;;;;;5137703;27;20200;-76
2022/06/05 10:34:21;;;;;;;35.23;32.27;;;-40.00;99.90;;;;;;5137742;27;20162;-74
2022/06/05 10:37:15;;;;;;;36.13;32.90;;;-40.00;99.90;;;;;;5137399;27;20314;-79
2022/06/05 10:39:57;;;;;;;37.43;33.67;;;-40.00;99.90;;;;;;5137561;27;20538;-69
2022/06/05 10:42:47;;;;;;;40.07;36.33;;;-40.00;99.90;;;;;;5137642;27;20176;-70
2022/06/05 10:45:41;;;;;;;37.93;34.63;;;-40.00;99.90;;;;;;5137442;27;20169;-72
2022/06/05 10:48:34;;;;;;;39.97;35.97;;;-40.00;99.90;;;;;;5136245;27;20209;-68
2022/06/05 10:51:08;;;;;;;40.33;36.23;;;-40.00;99.90;;;;;;5137515;27;20252;-73
2022/06/05 10:53:43;;;;;;;39.57;36.03;;;-40.00;99.90;;;;;;5137180;27;20176;-69
2022/06/05 10:56:15;;;;;;;42.50;38.47;;;-40.00;99.90;;;;;;5136029;27;20200;-70
2022/06/05 10:59:08;;;;;;;45.30;39.30;;;-40.00;99.90;;;;;;5136153;27;20184;-77
2022/06/05 11:01:45;;;;;;;42.20;38.30;;;-40.00;99.90;;;;;;5138323;27;20189;-75
2022/06/05 11:04:29;;;;;;;44.90;40.50;;;-40.00;99.90;;;;;;5137102;27;20173;-84
2022/06/05 11:07:32;;;;;;;43.53;39.43;;;-40.00;99.90;;;;;;5137334;27;20303;-71
2022/06/05 11:10:13;;;;;;;44.60;40.40;;;-40.00;99.90;;;;;;5136283;27;20202;-82
2022/06/05 11:15:56;;;;;;;46.37;41.77;;;-40.00;99.90;;;;;;5137419;27;20181;-83
2022/06/05 11:18:43;;;;;;;44.07;39.97;;;-40.00;99.90;;;;;;5136331;27;20180;-78
2022/06/05 11:21:10;;;;;;;47.57;42.87;;;-40.00;99.90;;;;;;5136654;27;20182;-85
2022/06/05 11:23:40;;;;;;;49.07;44.27;;;-40.00;99.90;;;;;;5136250;27;20188;-85
2022/06/05 11:26:44;;;;;;;50.40;45.30;;;-40.00;99.90;;;;;;5137003;27;20208;-76
2022/06/05 11:29:42;;;;;;;51.27;46.20;;;-40.00;99.90;;;;;;5137018;27;20169;-76
2022/06/05 11:32:42;;;;;;;52.93;47.53;;;-40.00;99.90;;;;;;5136139;27;20530;-76
2022/06/05 11:35:46;;;;;;;49.60;44.67;;;-40.00;99.90;;;;;;5136346;27;20189;-77
2022/06/05 11:38:29;;;;;;;50.63;45.63;;;-40.00;99.90;;;;;;5125632;27;20191;-72
2022/06/05 11:41:26;;;;;;;52.97;47.70;;;-40.00;99.90;;;;;;5137031;27;20193;-76
2022/06/05 11:44:09;;;;;;;55.93;50.23;;;-40.00;99.90;;;;;;5135877;28;20173;-77
2022/06/05 11:46:46;;;;;;;50.53;45.60;;;-40.00;99.90;;;;;;5137212;27;20193;-86
2022/06/05 11:49:27;;;;;;;51.63;46.43;;;-40.00;99.90;;;;;;5135906;27;20449;-89
2022/06/05 11:51:59;;;;;;;54.20;48.73;;;-40.00;99.90;;;;;;5136034;27;20172;-89
2022/06/05 11:54:31;;;;;;;52.57;47.10;;;-40.00;99.90;;;;;;5136886;27;20161;-89
2022/06/05 11:57:23;;;;;;;52.33;47.50;;;-40.00;99.90;;;;;;5135715;27;20544;-86
2022/06/05 12:00:07;;;;;;;52.37;47.30;;;-40.00;99.90;;;;;;5136968;27;20165;-72
2022/06/05 12:03:23;;;;;;;54.10;48.80;;;-40.00;99.90;;;;;;5136824;27;20170;-80
2022/06/05 12:06:13;;;;;;;52.17;47.30;;;-40.00;99.90;;;;;;5096831;28;20505;-76
2022/06/05 12:08:45;;;;;;;49.50;44.97;;;-40.00;99.90;;;;;;5136635;27;20661;-76
2022/06/05 12:11:33;;;;;;;52.47;47.17;;;-40.00;99.90;;;;;;5136807;27;20161;-73
2022/06/05 12:14:15;;;;;;;50.70;45.50;;;-40.00;99.90;;;;;;5136679;27;20546;-81
2022/06/05 12:16:51;;;;;;;50.50;45.87;;;-40.00;99.90;;;;;;5136336;27;20174;-76
2022/06/05 12:19:31;;;;;;;53.70;48.23;;;-40.00;99.90;;;;;;5136397;27;20173;-69
2022/06/05 12:22:06;;;;;;;50.10;45.63;;;-40.00;99.90;;;;;;5140410;27;20564;-82
2022/06/05 12:25:04;;;;;;;47.53;42.90;;;-40.00;99.90;;;;;;5140822;27;20169;-75
2022/06/05 12:27:54;;;;;;;47.13;42.90;;;-40.00;99.90;;;;;;5116464;27;20209;-79
2022/06/05 12:30:30;;;;;;;46.43;41.73;;;-40.00;99.90;;;;;;5140441;27;20299;-75
2022/06/05 12:33:11;;;;;;;47.77;43.47;;;-40.00;99.90;;;;;;5140042;27;20176;-84
2022/06/05 12:35:40;;;;;;;47.73;43.33;;;-40.00;99.90;;;;;;5139124;27;20273;-81
2022/06/05 12:38:22;;;;;;;42.70;38.63;;;-40.00;99.90;;;;;;5139103;27;20214;-77
2022/06/05 12:41:15;;;;;;;45.23;41.27;;;-40.00;99.90;;;;;;5139260;27;20475;-78
2022/06/05 12:43:56;;;;;;;43.00;38.97;;;-40.00;99.90;;;;;;5140511;27;20165;-81
2022/06/05 12:46:40;;;;;;;39.30;35.70;;;-40.00;99.90;;;;;;5140037;27;20205;-87
2022/06/05 12:49:35;;;;;;;35.37;32.03;;;-40.00;99.90;;;;;;5139859;27;20168;-85
2022/06/05 12:52:16;;;;;;;32.37;29.50;;;-40.00;99.90;;;;;;5131562;27;20625;-78
2022/06/05 12:54:50;;;;;;;28.53;25.83;;;-40.00;99.90;;;;;;5140038;27;20165;-71
2022/06/05 12:57:26;;;;;;;28.07;25.60;;;-40.00;99.90;;;;;;5139755;27;20168;-71
2022/06/05 13:00:30;;;;;;;23.43;21.43;;;-40.00;99.90;;;;;;5139842;27;20214;-69
2022/06/05 13:03:10;;;;;;;28.37;25.50;;;-40.00;99.90;;;;;;5116590;28;20272;-69
2022/06/05 13:05:48;;;;;;;24.40;22.23;;;-40.00;99.90;;;;;;5137580;27;20464;-74
2022/06/05 13:08:44;;;;;;;23.47;21.27;;;-40.00;99.90;;;;;;5139262;27;20258;-74
2022/06/05 13:11:24;;;;;;;22.17;20.20;;;-40.00;99.90;;;;;;5139432;27;20603;-76
2022/06/05 13:14:09;;;;;;;21.87;19.97;;;-40.00;99.90;;;;;;5139241;27;20158;-72